KHIF

Hill Air Force Base

Airport
ICAO code
KHIF
IATA Code
HIF
Summary
ICAO Region
NAM
ICAO Territory
Location

Ogden, Utah

Serving
Ogden
Elevation
4789 ft
Coordinates
41° 7' 26" N , 111° 58' 24" W
KCC
Airport CFIT
Altimeter Temperature Error Correction
Airport RE
Hot and High Operations
Metar
KHIF 122255Z AUTO 03006KT 10SM CLR 38/M06 A3006 RMK AO2 SLP094 T03771060

Hill Air Force Base is a United States Air Force facility located in northern Utah, just south of the city of Ogden.

 

Airport map

Aerial View

SKYbrary Partners:

Safety knowledge contributed by: